Time;durP1;ratioP1;P1;durP2;ratioP2;P2;SDS_P1;SDS_P2;PMS_P1;PMS_P2;Temp;Humidity;BMP_temperature;BMP_pressure;BME280_temperature;BME280_humidity;BME280_pressure;Samples;Min_cycle;Max_cycle;Signal;HPM_P1;HPM_P2
2022/11/03 00:01:42;;;;;;;25.13;16.15;;;;;;;5.73;100.00;100395.19;4955163;28;20081;-88
2022/11/03 00:04:10;;;;;;;26.25;16.27;;;;;;;5.70;100.00;100395.22;4955365;28;20470;-87
2022/11/03 00:06:35;;;;;;;31.95;18.15;;;;;;;5.62;100.00;100383.31;4955411;28;20113;-87
2022/11/03 00:09:04;;;;;;;27.30;17.58;;;;;;;5.68;100.00;100398.72;4955261;28;20138;-87
2022/11/03 00:11:32;;;;;;;27.40;17.45;;;;;;;5.64;100.00;100399.63;4955208;28;20027;-87
2022/11/03 00:13:58;;;;;;;24.27;16.38;;;;;;;5.63;100.00;100400.50;4972709;28;20026;-87
2022/11/03 00:16:24;;;;;;;27.92;15.90;;;;;;;5.62;100.00;100404.81;4955134;28;20018;-89
2022/11/03 00:18:50;;;;;;;30.38;18.35;;;;;;;5.56;100.00;100407.47;4955515;28;20510;-88
2022/11/03 00:21:15;;;;;;;29.42;17.65;;;;;;;5.51;100.00;100402.38;4955030;28;20058;-88
2022/11/03 00:23:43;;;;;;;29.55;17.52;;;;;;;5.53;100.00;100399.78;4955151;28;20027;-88
2022/11/03 00:26:17;;;;;;;25.38;16.15;;;;;;;5.51;100.00;100401.53;4955047;28;20030;-89
2022/11/03 00:28:45;;;;;;;29.02;15.63;;;;;;;5.39;100.00;100391.38;4955039;28;20026;-88
2022/11/03 00:31:16;;;;;;;24.67;15.80;;;;;;;5.46;100.00;100403.34;4972446;28;20026;-87
2022/11/03 00:33:42;;;;;;;26.00;15.32;;;;;;;5.41;100.00;100403.41;4955075;28;20049;-88
2022/11/03 00:36:11;;;;;;;22.25;14.95;;;;;;;5.40;100.00;100391.38;4972378;28;20027;-87
2022/11/03 00:38:37;;;;;;;22.27;13.27;;;;;;;5.29;100.00;100382.88;4931600;29;20028;-88
2022/11/03 00:41:04;;;;;;;26.25;13.90;;;;;;;5.38;100.00;100395.69;4915788;29;20126;-87
2022/11/03 00:43:33;;;;;;;25.00;12.52;;;;;;;5.38;100.00;100397.41;4915426;29;20031;-87
2022/11/03 00:45:58;;;;;;;22.70;14.02;;;;;;;5.35;100.00;100379.34;4931817;29;20036;-88
2022/11/03 00:48:33;;;;;;;25.05;12.85;;;;;;;5.37;100.00;100383.66;4915733;29;20028;-87
2022/11/03 00:51:10;;;;;;;17.83;12.50;;;;;;;5.36;100.00;100383.69;4931746;29;20027;-86
2022/11/03 00:53:42;;;;;;;22.00;13.73;;;;;;;5.28;100.00;100373.44;4931337;29;20138;-86
2022/11/03 00:56:16;;;;;;;22.80;13.73;;;;;;;5.32;100.00;100384.59;4915577;29;20399;-87
2022/11/03 00:58:43;;;;;;;25.13;13.60;;;;;;;5.31;100.00;100382.84;4915851;29;20035;-88
2022/11/03 01:01:25;;;;;;;23.35;13.15;;;;;;;5.20;100.00;100365.78;4931663;29;20024;-89
2022/11/03 01:06:49;;;;;;;18.13;12.38;;;;;;;5.17;100.00;100376.16;4932077;29;20054;-89
2022/11/03 01:09:15;;;;;;;18.88;12.05;;;;;;;5.14;100.00;100376.22;4930709;28;20133;-87
2022/11/03 01:11:44;;;;;;;20.83;12.82;;;;;;;5.18;100.00;100390.78;4958798;28;20466;-88
2022/11/03 01:14:11;;;;;;;17.63;11.52;;;;;;;5.12;100.00;100377.94;4958513;28;20026;-87
2022/11/03 01:16:37;;;;;;;19.88;11.82;;;;;;;5.12;100.00;100377.94;4975918;28;20097;-87
2022/11/03 01:19:02;;;;;;;15.80;11.38;;;;;;;5.10;100.00;100364.22;4958631;28;20494;-87
2022/11/03 01:21:28;;;;;;;20.92;11.82;;;;;;;5.11;100.00;100368.50;4958253;28;20023;-88
2022/11/03 01:23:54;;;;;;;17.48;12.60;;;;;;;5.14;100.00;100377.91;4958535;28;20117;-89
2022/11/03 01:26:19;;;;;;;16.85;11.38;;;;;;;5.08;100.00;100371.13;4958206;28;20054;-88
2022/11/03 01:28:46;;;;;;;16.95;10.80;;;;;;;5.08;100.00;100378.00;4953853;29;20037;-88
2022/11/03 01:31:21;;;;;;;20.95;11.95;;;;;;;5.02;100.00;100368.63;4937763;29;20031;-88
2022/11/03 01:33:49;;;;;;;20.40;11.23;;;;;;;5.02;100.00;100381.53;4953982;29;20078;-88
2022/11/03 01:36:14;;;;;;;16.40;10.88;;;;;;;4.97;100.00;100372.97;4937721;29;20603;-88
2022/11/03 01:38:41;;;;;;;16.30;10.82;;;;;;;4.93;100.00;100374.75;4937947;29;20047;-88
2022/11/03 01:41:08;;;;;;;15.75;10.57;;;;;;;4.88;100.00;100373.06;4953970;29;20062;-89
2022/11/03 01:43:36;;;;;;;19.90;10.90;;;;;;;4.90;100.00;100374.78;4934126;29;20038;-88
2022/11/03 01:46:23;;;;;;;18.25;11.18;;;;;;;4.87;100.00;100379.13;4918685;29;20027;-88
2022/11/03 01:48:58;;;;;;;15.95;10.85;;;;;;;4.84;100.00;100371.41;4918655;29;20030;-88
2022/11/03 01:51:28;;;;;;;18.08;11.13;;;;;;;4.76;100.00;100356.00;4934400;29;20036;-88
2022/11/03 01:53:56;;;;;;;21.63;12.17;;;;;;;4.77;100.00;100364.63;4918711;29;20036;-88
2022/11/03 01:56:22;;;;;;;18.52;11.73;;;;;;;4.77;100.00;100365.47;4918430;29;20371;-88
2022/11/03 01:58:51;;;;;;;20.48;11.85;;;;;;;4.79;100.00;100360.28;4934423;29;20558;-88
2022/11/03 02:01:17;;;;;;;19.77;11.75;;;;;;;4.78;100.00;100362.00;4918379;29;20023;-88
2022/11/03 02:03:49;;;;;;;22.90;12.57;;;;;;;4.77;100.00;100356.88;4918513;29;20530;-88
2022/11/03 02:06:17;;;;;;;19.30;11.82;;;;;;;4.74;100.00;100353.44;4928842;29;20035;-89
2022/11/03 02:08:47;;;;;;;26.75;14.95;;;;;;;4.67;100.00;100345.78;4954439;29;20023;-89
2022/11/03 02:13:58;;;;;;;25.08;12.65;;;;;;;4.65;100.00;100342.38;4956100;29;20086;-89
2022/11/03 02:16:25;;;;;;;22.15;12.63;;;;;;;4.59;100.00;100330.38;4954186;29;20415;-89
2022/11/03 02:18:53;;;;;;;26.45;13.15;;;;;;;4.54;100.00;100328.75;4954327;29;20030;-89
2022/11/03 02:21:53;;;;;;;23.38;13.57;;;;;;;4.53;100.00;100333.06;4953328;28;20107;-89
2022/11/03 02:24:24;;;;;;;21.60;13.02;;;;;;;4.51;100.00;100337.38;4914678;29;20123;-88
2022/11/03 02:26:55;;;;;;;24.42;13.57;;;;;;;4.48;100.00;100340.00;4914807;29;20031;-88
2022/11/03 02:29:20;;;;;;;25.73;12.68;;;;;;;4.43;100.00;100336.63;4898893;29;20032;-88
2022/11/03 02:31:53;;;;;;;21.48;12.73;;;;;;;4.42;100.00;100340.88;4914836;29;20128;-89
2022/11/03 02:34:25;;;;;;;21.10;12.82;;;;;;;4.42;100.00;100340.03;4898721;29;20043;-88
2022/11/03 02:36:58;;;;;;;30.02;17.27;;;;;;;4.34;100.00;100327.25;4914807;29;20016;-88
2022/11/03 02:39:33;;;;;;;50.97;28.98;;;;;;;4.35;100.00;100338.41;4914535;29;20032;-88
2022/11/03 02:42:01;;;;;;;26.70;17.23;;;;;;;4.28;100.00;100329.88;4914509;29;20036;-88
2022/11/03 02:44:27;;;;;;;26.83;14.15;;;;;;;4.24;100.00;100333.34;4914362;29;20034;-88
2022/11/03 02:47:00;;;;;;;21.05;12.57;;;;;;;4.23;100.00;100329.94;4914452;29;20024;-89
2022/11/03 02:49:26;;;;;;;19.58;11.63;;;;;;;4.20;100.00;100337.69;4914199;29;20455;-88
2022/11/03 02:52:02;;;;;;;20.27;12.63;;;;;;;4.19;100.00;100335.97;4914478;29;20019;-87
2022/11/03 02:54:33;;;;;;;20.67;12.15;;;;;;;4.17;100.00;100323.97;4898375;29;20096;-88
2022/11/03 02:57:04;;;;;;;22.30;12.02;;;;;;;4.06;100.00;100308.59;4898662;29;20024;-88
2022/11/03 02:59:37;;;;;;;20.33;11.05;;;;;;;4.14;100.00;100319.72;4914152;29;20028;-89
2022/11/03 03:02:07;;;;;;;17.17;10.55;;;;;;;4.13;100.00;100325.75;4948245;29;20102;-89
2022/11/03 03:04:38;;;;;;;19.65;12.40;;;;;;;4.12;100.00;100325.72;4937334;29;20114;-88
2022/11/03 03:07:07;;;;;;;24.38;12.98;;;;;;;4.12;100.00;100325.72;4953340;29;20038;-88
2022/11/03 03:09:59;;;;;;;20.17;11.35;;;;;;;4.10;100.00;100323.19;4953085;29;20053;-88
2022/11/03 03:12:26;;;;;;;29.90;20.48;;;;;;;4.12;100.00;100324.00;4953249;29;20023;-88
2022/11/03 03:14:54;;;;;;;26.48;18.10;;;;;;;4.11;100.00;100319.72;4937468;29;20459;-88
2022/11/03 03:17:54;;;;;;;31.85;23.10;;;;;;;4.05;100.00;100306.06;4953155;29;20055;-88
2022/11/03 03:20:38;;;;;;;32.13;24.95;;;;;;;4.08;100.00;100313.75;4932715;29;20471;-88
2022/11/03 03:23:13;;;;;;;29.73;23.63;;;;;;;4.05;100.00;100306.91;4932858;29;20031;-87
2022/11/03 03:25:44;;;;;;;38.90;26.50;;;;;;;4.05;100.00;100300.91;4932547;29;20140;-87
2022/11/03 03:28:15;;;;;;;38.72;30.20;;;;;;;4.00;100.00;100288.91;4932830;29;20031;-87
2022/11/03 03:30:44;;;;;;;39.42;29.05;;;;;;;4.02;100.00;100291.47;4916734;29;20035;-87
2022/11/03 03:33:09;;;;;;;32.20;24.63;;;;;;;4.01;100.00;100289.75;4931894;29;20024;-87
2022/11/03 03:35:39;;;;;;;39.45;29.63;;;;;;;4.02;100.00;100286.31;4932329;29;20409;-86
2022/11/03 03:38:08;;;;;;;39.92;29.15;;;;;;;3.92;100.00;100272.66;4932570;29;20036;-87
2022/11/03 03:40:38;;;;;;;39.92;27.58;;;;;;;3.96;100.00;100282.06;4932310;29;20138;-87
2022/11/03 03:43:07;;;;;;;33.58;25.73;;;;;;;3.95;100.00;100282.94;4916770;29;20094;-87
2022/11/03 03:45:34;;;;;;;31.33;24.00;;;;;;;3.92;100.00;100274.41;4932380;29;20123;-88
2022/11/03 03:48:00;;;;;;;35.97;24.92;;;;;;;3.85;100.00;100273.59;4932443;29;20095;-87
2022/11/03 03:50:28;;;;;;;31.52;24.50;;;;;;;3.91;100.00;100283.81;4916352;29;20195;-88
2022/11/03 03:52:58;;;;;;;34.42;24.63;;;;;;;3.80;100.00;100271.94;4913286;29;20103;-88
2022/11/03 03:55:33;;;;;;;33.47;23.10;;;;;;;3.87;100.00;100282.13;4913177;29;20127;-88
2022/11/03 03:57:58;;;;;;;29.60;18.63;;;;;;;3.86;100.00;100285.59;4913411;29;20032;-88
2022/11/03 04:00:24;;;;;;;26.75;19.35;;;;;;;3.87;100.00;100287.28;4913235;29;20131;-87
2022/11/03 04:02:49;;;;;;;25.95;19.20;;;;;;;3.86;100.00;100285.59;4897557;29;20649;-88
2022/11/03 04:05:15;;;;;;;26.10;18.67;;;;;;;3.83;100.00;100280.47;4897546;29;20079;-88
2022/11/03 04:07:46;;;;;;;25.02;18.42;;;;;;;3.78;100.00;100265.91;4915155;29;20439;-88
2022/11/03 04:10:11;;;;;;;21.60;16.88;;;;;;;3.79;100.00;100276.19;4932167;29;20086;-87
2022/11/03 04:23:36;;;;;;;23.70;14.88;;;;;;;3.65;100.00;100267.75;4940280;29;20035;-87
2022/11/03 04:26:05;;;;;;;22.27;15.32;;;;;;;3.67;100.00;100264.31;4952561;29;20379;-87
2022/11/03 04:28:31;;;;;;;25.55;16.23;;;;;;;3.57;100.00;100254.94;4952307;29;20383;-87
2022/11/03 04:30:58;;;;;;;24.55;14.55;;;;;;;3.63;100.00;100267.78;4952487;29;20027;-87
2022/11/03 04:33:23;;;;;;;25.05;15.05;;;;;;;3.61;100.00;100266.06;4952168;29;20395;-88
2022/11/03 04:35:50;;;;;;;28.30;16.13;;;;;;;3.61;100.00;100250.59;4952318;29;20035;-88
2022/11/03 04:38:15;;;;;;;23.83;14.77;;;;;;;3.68;100.00;100258.28;4952335;29;20015;-89
2022/11/03 04:40:44;;;;;;;22.00;13.63;;;;;;;3.65;100.00;100244.56;4952103;29;20650;-88
2022/11/03 04:43:12;;;;;;;23.02;14.35;;;;;;;3.70;100.00;100250.53;4952361;28;20023;-88
2022/11/03 04:45:38;;;;;;;23.08;13.82;;;;;;;3.69;100.00;100254.81;4955861;29;20592;-89
2022/11/03 04:48:15;;;;;;;21.30;13.27;;;;;;;3.65;100.00;100244.56;4955972;29;20041;-88
2022/11/03 04:50:42;;;;;;;22.67;13.25;;;;;;;3.70;100.00;100258.25;4955734;29;20080;-88
2022/11/03 04:53:13;;;;;;;24.52;13.02;;;;;;;3.71;100.00;100253.09;4955788;29;20035;-88
2022/11/03 04:55:40;;;;;;;29.35;13.98;;;;;;;3.68;100.00;100244.53;4956738;29;20031;-88
2022/11/03 04:58:15;;;;;;;21.42;14.02;;;;;;;3.71;100.00;100250.53;4955743;29;20031;-88
2022/11/03 05:00:40;;;;;;;24.27;14.52;;;;;;;3.69;100.00;100249.66;4939680;29;20019;-88
2022/11/03 05:03:13;;;;;;;21.60;14.45;;;;;;;3.71;100.00;100242.81;4955708;29;20026;-88
2022/11/03 05:05:39;;;;;;;24.55;14.23;;;;;;;3.66;100.00;100230.81;4956721;29;20058;-89
2022/11/03 05:08:08;;;;;;;26.00;14.82;;;;;;;3.69;100.00;100238.53;4955514;29;20439;-89
2022/11/03 05:10:34;;;;;;;24.27;14.00;;;;;;;3.71;100.00;100240.22;4955308;29;20078;-89
2022/11/03 05:13:00;;;;;;;28.30;14.57;;;;;;;3.70;100.00;100228.19;4955607;29;20375;-89
2022/11/03 05:15:29;;;;;;;21.05;14.88;;;;;;;3.72;100.00;100241.94;4955221;29;20606;-88
2022/11/03 05:17:57;;;;;;;19.77;14.38;;;;;;;3.71;100.00;100236.81;4955460;29;20027;-88
2022/11/03 05:20:38;;;;;;;22.95;15.35;;;;;;;3.66;100.00;100229.09;4955238;29;20125;-88
2022/11/03 05:23:04;;;;;;;19.83;13.65;;;;;;;3.71;100.00;100235.06;4956486;29;20034;-88
2022/11/03 05:25:46;;;;;;;20.95;13.63;;;;;;;3.72;100.00;100235.91;4954898;29;20483;-88
2022/11/03 05:28:25;;;;;;;23.33;13.75;;;;;;;3.69;100.00;100231.63;4955138;29;20023;-88
2022/11/03 05:30:51;;;;;;;20.88;13.43;;;;;;;3.69;100.00;100231.63;4955092;29;20027;-88
2022/11/03 05:33:33;;;;;;;18.80;12.60;;;;;;;3.69;100.00;100223.91;4955603;29;20031;-88
2022/11/03 05:36:12;;;;;;;22.75;12.52;;;;;;;3.64;100.00;100219.69;4939102;29;20097;-88
2022/11/03 05:38:38;;;;;;;21.52;13.18;;;;;;;3.64;100.00;100217.97;4953525;29;20035;-88
2022/11/03 05:41:22;;;;;;;19.42;12.27;;;;;;;3.63;100.00;100217.97;4953830;29;20485;-88
2022/11/03 05:43:54;;;;;;;20.45;12.60;;;;;;;3.62;100.00;100218.81;4953709;29;20035;-88
2022/11/03 05:46:20;;;;;;;18.17;12.90;;;;;;;3.59;100.00;100206.00;4953938;29;20023;-88
2022/11/03 05:48:45;;;;;;;18.33;12.82;;;;;;;3.64;100.00;100222.25;4953327;29;20046;-89
2022/11/03 05:51:44;;;;;;;19.17;12.23;;;;;;;3.64;100.00;100222.25;4915597;29;20036;-89
2022/11/03 05:54:26;;;;;;;19.58;12.85;;;;;;;3.64;100.00;100223.09;4807562;29;20034;-88
2022/11/03 05:56:53;;;;;;;17.08;12.23;;;;;;;3.68;100.00;100226.50;4806711;29;20471;-88
2022/11/03 05:59:26;;;;;;;20.27;12.95;;;;;;;3.67;100.00;100211.94;4822569;29;20038;-88
2022/11/03 06:01:54;;;;;;;19.90;12.90;;;;;;;3.74;100.00;100219.56;4822697;29;20526;-88
2022/11/03 06:04:23;;;;;;;17.05;12.00;;;;;;;3.84;100.00;100225.50;4807304;29;20053;-88
2022/11/03 06:06:52;;;;;;;18.55;12.82;;;;;;;3.92;100.00;100223.69;4822139;29;20068;-88
2022/11/03 06:09:21;;;;;;;19.85;12.95;;;;;;;3.94;100.00;100219.38;4815618;29;20055;-88
2022/11/03 06:11:50;;;;;;;29.83;15.82;;;;;;;3.96;100.00;100215.06;4803966;29;20602;-88
2022/11/03 06:14:22;;;;;;;33.15;15.75;;;;;;;4.07;100.00;100224.41;4804289;29;20133;-88
2022/11/03 06:16:49;;;;;;;29.98;16.58;;;;;;;4.14;100.00;100223.47;4803882;29;20034;-88
2022/11/03 06:19:25;;;;;;;24.60;14.77;;;;;;;4.31;100.00;100218.97;4804176;29;20027;-88
2022/11/03 06:21:53;;;;;;;37.40;19.23;;;;;;;4.59;100.00;100222.03;4810392;29;20044;-87
2022/11/03 06:24:23;;;;;;;31.98;17.92;;;;;;;4.84;100.00;100209.66;4822188;29;20050;-88
2022/11/03 06:26:49;;;;;;;27.75;15.27;;;;;;;5.17;100.00;100208.31;4821826;29;20802;-88
2022/11/03 06:29:17;;;;;;;40.85;20.40;;;;;;;5.57;100.00;100209.41;4847148;29;20443;-88
2022/11/03 06:31:47;;;;;;;48.78;25.38;;;;;;;5.87;100.00;100206.25;4914600;29;20571;-88
2022/11/03 06:34:29;;;;;;;60.58;31.38;;;;;;;6.27;100.00;100210.69;4914826;29;20024;-88
2022/11/03 06:36:57;;;;;;;46.78;25.13;;;;;;;6.67;100.00;100207.28;4914866;29;20124;-87
2022/11/03 06:39:23;;;;;;;29.48;15.85;;;;;;;6.92;100.00;100205.84;4914817;29;20649;-87
2022/11/03 06:41:49;;;;;;;26.48;14.23;;;;;;;7.22;100.00;100218.97;4918447;29;20032;-88
2022/11/03 06:44:22;;;;;;;20.95;12.23;;;;;;;7.79;100.00;100205.44;4955189;29;20027;-87
2022/11/03 06:46:48;;;;;;;19.55;11.55;;;;;;;9.10;100.00;100207.72;4953760;29;20480;-88
2022/11/03 06:49:34;;;;;;;20.13;11.00;;;;;;;9.56;94.44;100199.28;4953805;29;20030;-87
2022/11/03 06:52:18;;;;;;;14.85;9.18;;;;;;;9.57;93.56;100202.75;4953781;29;20054;-87
2022/11/03 06:54:47;;;;;;;20.75;10.13;;;;;;;10.14;94.82;100199.03;4953607;29;20027;-88
2022/11/03 06:57:16;;;;;;;17.33;9.70;;;;;;;11.57;88.47;100195.19;4955016;29;20052;-88
2022/11/03 06:59:41;;;;;;;18.40;9.40;;;;;;;11.97;84.42;100197.00;4953612;29;20058;-88
2022/11/03 07:02:45;;;;;;;15.32;9.05;;;;;;;11.31;83.94;100190.22;4953638;29;20054;-88
2022/11/03 07:05:21;;;;;;;14.23;8.23;;;;;;;10.92;85.56;100210.00;4937432;29;20039;-87
2022/11/03 07:07:47;;;;;;;18.70;9.40;;;;;;;10.73;86.29;100219.44;4952856;28;20035;-89
2022/11/03 07:10:13;;;;;;;14.75;8.45;;;;;;;10.65;86.77;100211.06;4953310;29;20392;-89
2022/11/03 07:12:40;;;;;;;14.73;8.43;;;;;;;10.28;86.54;100214.16;4953176;29;20023;-89
2022/11/03 07:15:20;;;;;;;17.33;8.77;;;;;;;10.08;88.04;100222.69;4953222;29;20419;-89
2022/11/03 07:17:45;;;;;;;14.23;8.52;;;;;;;9.87;88.97;100214.72;4953150;29;20027;-88
2022/11/03 07:20:15;;;;;;;13.75;8.77;;;;;;;9.82;89.92;100223.56;4954526;29;20038;-89
2022/11/03 07:22:42;;;;;;;14.90;8.90;;;;;;;9.91;90.59;100216.31;4952983;29;20031;-89
2022/11/03 07:25:15;;;;;;;17.45;9.43;;;;;;;9.68;90.50;100204.06;4953200;29;20027;-88
2022/11/03 07:27:41;;;;;;;14.50;8.98;;;;;;;9.70;91.27;100210.09;4952773;29;20031;-88
2022/11/03 07:30:16;;;;;;;14.02;10.02;;;;;;;9.67;91.59;100210.19;4953110;29;20046;-88
2022/11/03 07:32:42;;;;;;;16.13;9.43;;;;;;;9.85;91.44;100215.66;4954076;29;20129;-88
2022/11/03 07:35:16;;;;;;;18.05;10.43;;;;;;;10.01;91.37;100203.81;4953045;29;20113;-88
2022/11/03 07:37:43;;;;;;;18.92;10.43;;;;;;;10.08;90.79;100205.31;4952837;29;20113;-88
2022/11/03 07:40:15;;;;;;;18.15;9.85;;;;;;;9.85;90.16;100194.84;4952855;29;20031;-89
2022/11/03 07:42:40;;;;;;;15.52;9.02;;;;;;;10.02;91.23;100196.84;4936752;29;20446;-88
2022/11/03 07:45:46;;;;;;;17.10;9.68;;;;;;;10.31;90.59;100195.84;4932434;29;20126;-87
2022/11/03 07:48:44;;;;;;;23.98;9.98;;;;;;;10.33;88.54;100192.28;4932425;29;20032;-88
2022/11/03 07:51:23;;;;;;;17.48;9.05;;;;;;;10.19;88.92;100187.53;4873368;29;20041;-88
2022/11/03 07:53:57;;;;;;;21.98;12.48;;;;;;;10.09;89.79;100172.31;4875724;29;20473;-88
2022/11/03 07:56:25;;;;;;;14.60;8.23;;;;;;;10.09;89.86;100174.91;4875737;29;20044;-87
2022/11/03 07:58:59;;;;;;;15.63;9.02;;;;;;;9.97;89.93;100165.78;4859935;29;20033;-88
2022/11/03 08:01:29;;;;;;;20.70;10.20;;;;;;;9.80;90.52;100156.00;4875571;29;20041;-87
2022/11/03 08:04:03;;;;;;;14.80;9.40;;;;;;;9.73;90.92;100159.69;4882709;29;20032;-87
2022/11/03 08:06:29;;;;;;;14.30;8.75;;;;;;;9.70;91.96;100147.66;4888481;29;20404;-89
2022/11/03 08:08:54;;;;;;;18.08;9.50;;;;;;;9.72;91.41;100142.41;4893888;29;20049;-87
2022/11/03 08:11:21;;;;;;;14.18;8.80;;;;;;;9.79;91.27;100146.50;4894304;29;20119;-87
2022/11/03 08:13:47;;;;;;;19.10;8.98;;;;;;;9.90;90.67;100157.38;4894157;29;20044;-87
2022/11/03 08:16:12;;;;;;;18.42;9.32;;;;;;;9.90;90.83;100136.56;4914913;29;20035;-88
2022/11/03 08:18:38;;;;;;;14.43;7.90;;;;;;;10.08;90.12;100139.41;4932969;29;20114;-87
2022/11/03 08:21:03;;;;;;;12.20;8.32;;;;;;;9.97;89.57;100103.34;4936200;29;20047;-88
2022/11/03 08:23:29;;;;;;;15.82;8.07;;;;;;;10.08;89.41;100114.22;4926697;29;20091;-88
2022/11/03 08:25:54;;;;;;;14.18;8.40;;;;;;;10.26;89.00;100130.94;4921248;29;20111;-88
2022/11/03 08:28:20;;;;;;;15.77;7.50;;;;;;;10.26;88.97;100114.47;4949329;28;20069;-87
2022/11/03 08:30:45;;;;;;;11.57;7.40;;;;;;;10.28;88.61;100120.44;4978813;28;20626;-88
2022/11/03 08:33:10;;;;;;;13.52;7.45;;;;;;;10.29;88.78;100120.41;4976056;28;20057;-87
2022/11/03 08:35:36;;;;;;;15.95;8.70;;;;;;;10.32;88.37;100114.22;4995933;28;20022;-88
2022/11/03 08:38:01;;;;;;;14.30;8.20;;;;;;;10.36;88.21;100115.78;4971887;28;20122;-88
2022/11/03 08:40:27;;;;;;;11.95;7.57;;;;;;;10.47;88.82;100114.47;4958589;28;20030;-88
2022/11/03 08:42:52;;;;;;;15.57;7.72;;;;;;;10.46;87.87;100107.59;4958547;28;20031;-88
2022/11/03 08:45:17;;;;;;;14.32;6.85;;;;;;;10.42;87.91;100098.19;4958526;28;20054;-87
2022/11/03 08:47:43;;;;;;;13.15;6.63;;;;;;;10.42;86.91;100100.78;4975673;28;20045;-88
2022/11/03 08:50:08;;;;;;;15.32;6.95;;;;;;;10.47;86.53;100098.84;4958858;28;20065;-89
2022/11/03 08:52:34;;;;;;;14.05;6.82;;;;;;;10.24;86.52;100065.91;4976320;28;20054;-88
2022/11/03 08:54:59;;;;;;;14.48;7.38;;;;;;;10.39;86.75;100090.50;4975823;28;20054;-88
2022/11/03 08:57:25;;;;;;;12.98;6.45;;;;;;;10.39;86.75;100093.09;4959101;28;20101;-88
2022/11/03 08:59:51;;;;;;;13.98;6.68;;;;;;;10.46;86.22;100085.91;4958593;28;20409;-87
2022/11/03 09:02:16;;;;;;;11.85;6.82;;;;;;;10.44;86.59;100083.34;4976091;28;20054;-88
2022/11/03 09:04:42;;;;;;;13.18;7.15;;;;;;;10.47;86.70;100077.19;4975869;28;20466;-87
2022/11/03 09:07:07;;;;;;;11.90;6.88;;;;;;;10.38;86.44;100070.56;4975885;28;20055;-89
2022/11/03 09:09:32;;;;;;;17.02;7.15;;;;;;;10.47;87.20;100078.03;4958030;28;20057;-89
2022/11/03 09:11:59;;;;;;;22.60;8.25;;;;;;;10.58;87.27;100076.78;4958342;28;20038;-88
2022/11/03 09:14:25;;;;;;;15.68;7.85;;;;;;;10.56;87.05;100066.38;4942667;28;20022;-88
2022/11/03 09:16:53;;;;;;;33.03;9.40;;;;;;;10.48;87.10;100071.06;4958294;28;20021;-95
2022/11/03 09:19:19;;;;;;;17.25;9.05;;;;;;;10.51;87.45;100060.53;4958398;28;20107;-88
2022/11/03 09:21:44;;;;;;;19.02;9.70;;;;;;;10.43;88.05;100045.19;4934177;29;20057;-89
2022/11/03 09:24:09;;;;;;;14.57;8.50;;;;;;;10.60;87.87;100060.16;4934695;29;20427;-91
2022/11/03 09:26:35;;;;;;;16.80;8.23;;;;;;;10.64;87.96;100056.50;4934793;29;20091;-88
2022/11/03 09:29:00;;;;;;;17.25;8.82;;;;;;;10.59;87.57;100042.84;4934569;29;20026;-87
2022/11/03 09:31:27;;;;;;;20.70;8.93;;;;;;;10.67;87.49;100052.94;4934412;29;20087;-87
2022/11/03 09:33:53;;;;;;;18.13;9.02;;;;;;;10.72;87.85;100048.41;4934407;29;20086;-87
2022/11/03 09:36:18;;;;;;;14.55;7.95;;;;;;;10.77;88.00;100041.22;4934599;29;20513;-86
2022/11/03 09:38:44;;;;;;;16.73;8.68;;;;;;;10.84;87.80;100049.66;4934297;29;20507;-88
2022/11/03 09:41:16;;;;;;;15.82;8.70;;;;;;;10.73;87.23;100044.88;4934407;29;20031;-88
2022/11/03 09:43:42;;;;;;;17.77;8.63;;;;;;;10.69;87.47;100031.13;4918153;29;20028;-88
2022/11/03 09:46:08;;;;;;;16.73;8.02;;;;;;;10.71;87.84;100028.47;4934297;29;20028;-87
2022/11/03 09:48:33;;;;;;;22.50;8.13;;;;;;;10.70;88.05;100027.63;4934338;29;20031;-87
2022/11/03 09:51:00;;;;;;;13.93;7.30;;;;;;;10.78;88.28;100027.28;4934096;29;20353;-87
2022/11/03 09:53:25;;;;;;;13.13;7.82;;;;;;;10.71;87.82;100018.88;4953287;28;20490;-87
2022/11/03 09:55:50;;;;;;;16.35;7.68;;;;;;;10.77;88.21;100022.16;4974811;28;20042;-88
2022/11/03 09:58:17;;;;;;;16.67;7.55;;;;;;;10.77;88.78;100020.38;4957693;28;20015;-87
2022/11/03 10:00:43;;;;;;;19.02;8.07;;;;;;;10.80;88.70;100004.63;4974784;28;20077;-87
2022/11/03 10:03:15;;;;;;;16.67;8.25;;;;;;;10.82;88.64;100002.78;4957524;28;20014;-87
2022/11/03 10:05:43;;;;;;;13.00;7.40;;;;;;;10.84;87.44;99993.19;4974692;28;20470;-88
2022/11/03 10:08:29;;;;;;;16.00;6.10;;;;;;;10.84;87.64;99980.16;4957362;28;20034;-86
2022/11/03 10:10:56;;;;;;;9.82;5.90;;;;;;;10.89;87.42;99982.56;4957064;28;20039;-87
2022/11/03 10:13:52;;;;;;;17.27;7.03;;;;;;;10.90;87.16;99986.84;4974746;28;20042;-86
2022/11/03 10:16:20;;;;;;;12.32;5.97;;;;;;;10.84;87.74;99977.53;4877122;29;20189;-87
2022/11/03 10:18:45;;;;;;;17.73;7.53;;;;;;;10.83;88.12;99982.78;4877019;29;20088;-87
2022/11/03 10:21:18;;;;;;;15.45;7.07;;;;;;;10.78;88.74;99966.50;4861779;29;20036;-89
2022/11/03 10:23:44;;;;;;;13.82;7.03;;;;;;;10.68;88.16;99950.44;4876976;29;20040;-91
2022/11/03 10:26:18;;;;;;;14.02;6.65;;;;;;;10.82;88.75;99961.09;4877576;29;20441;-91
2022/11/03 10:29:03;;;;;;;12.57;6.60;;;;;;;10.86;88.08;99960.06;4861276;29;20033;-91
2022/11/03 10:31:34;;;;;;;11.50;6.15;;;;;;;10.83;87.24;99941.09;4876883;29;20044;-91
2022/11/03 10:33:59;;;;;;;;;;;;;;;10.99;87.78;99960.38;4861859;29;20036;-91
2022/11/03 10:36:33;;;;;;;17.13;5.75;;;;;;;11.02;86.27;99936.81;4877379;29;19908;-91
2022/11/03 10:39:18;;;;;;;15.40;5.75;;;;;;;11.19;84.89;99944.72;4858168;29;20080;-91
2022/11/03 10:41:57;;;;;;;13.60;5.15;;;;;;;11.28;83.94;99946.06;5172928;23;20049;-95
2022/11/03 10:44:26;;;;;;;9.85;4.60;;;;;;;11.38;83.45;99942.16;4956982;28;20422;-90
2022/11/03 10:47:00;;;;;;;16.90;5.60;;;;;;;11.43;82.84;99936.72;4956649;28;20026;-90
2022/11/03 10:49:53;;;;;;;13.40;4.72;;;;;;;11.44;83.29;99921.00;4957158;28;20482;-91
2022/11/03 10:52:25;;;;;;;14.00;4.97;;;;;;;11.51;83.64;99926.78;4937285;29;20039;-94
2022/11/03 10:55:10;;;;;;;14.93;5.93;;;;;;;11.56;82.27;99922.19;4920534;29;20027;-89
2022/11/03 10:57:36;;;;;;;10.68;5.40;;;;;;;11.62;82.05;99913.22;4917048;29;20055;-91
2022/11/03 11:10:25;;;;;;;12.27;4.72;;;;;;;11.81;80.78;99898.41;5256138;23;20152;-92
2022/11/03 11:14:00;;;;;;;9.35;3.92;;;;;;;11.83;80.46;99900.97;4905562;29;20040;-96
2022/11/03 11:16:49;;;;;;;14.05;4.68;;;;;;;11.88;81.08;99883.31;4814426;29;20030;-91
2022/11/03 11:19:14;;;;;;;12.52;5.10;;;;;;;11.91;81.61;99878.81;4808003;29;20765;-90
2022/11/03 11:26:00;;;;;;;12.32;4.63;;;;;;;11.95;80.95;99849.03;4750720;30;20093;-94
2022/11/03 11:29:08;;;;;;;9.88;4.60;;;;;;;12.01;81.10;99845.28;4732871;30;20024;-94
2022/11/03 11:35:00;;;;;;;10.40;4.80;;;;;;;12.13;80.17;99849.88;4718312;30;20099;-96
2022/11/03 11:38:28;;;;;;;9.85;4.55;;;;;;;12.13;80.07;99852.47;4716866;30;20807;-95
2022/11/03 11:41:50;;;;;;;13.27;5.53;;;;;;;12.07;80.29;99829.31;4716963;30;20048;-93
2022/11/03 11:47:54;;;;;;;11.10;4.60;;;;;;;12.12;79.57;99834.28;4667778;30;20124;-95
2022/11/03 11:50:40;;;;;;;12.00;6.07;;;;;;;12.15;79.16;99823.69;4696301;30;20052;-88
2022/11/03 11:53:05;;;;;;;13.35;5.28;;;;;;;12.14;79.18;99833.31;4695394;30;20570;-88
2022/11/03 11:55:58;;;;;;;9.52;4.93;;;;;;;12.08;79.39;99811.88;4700377;30;20041;-88
2022/11/03 11:58:41;;;;;;;9.45;4.50;;;;;;;12.15;78.79;99818.47;4696201;30;20048;-87
2022/11/03 12:04:53;;;;;;;11.50;4.65;;;;;;;12.16;79.66;99812.34;4974264;23;20076;31
2022/11/03 12:07:59;;;;;;;8.48;4.65;;;;;;;12.19;79.22;99812.19;4859958;29;20037;-95
2022/11/03 12:10:26;;;;;;;8.52;4.82;;;;;;;12.19;79.79;99799.13;4861708;29;20048;-91
2022/11/03 12:12:53;;;;;;;12.98;4.82;;;;;;;12.12;80.17;99785.53;4861114;29;20547;-93
2022/11/03 12:15:46;;;;;;;11.77;4.90;;;;;;;12.23;80.16;99796.28;4860219;29;20380;-91